sensor_id;sensor_type;location;lat;lon;timestamp;temperature;humidity
802;DHT22;383;48.766;9.270;2023-10-09T00:01:26;13.50;96.30
802;DHT22;383;48.766;9.270;2023-10-09T00:03:53;13.40;96.50
802;DHT22;383;48.766;9.270;2023-10-09T00:06:21;13.40;96.50
802;DHT22;383;48.766;9.270;2023-10-09T00:08:58;13.40;96.50
802;DHT22;383;48.766;9.270;2023-10-09T00:11:37;13.40;96.30
802;DHT22;383;48.766;9.270;2023-10-09T00:14:07;13.50;96.30
802;DHT22;383;48.766;9.270;2023-10-09T00:16:34;13.40;96.30
802;DHT22;383;48.766;9.270;2023-10-09T00:19:03;13.50;96.10
802;DHT22;383;48.766;9.270;2023-10-09T00:21:40;13.50;96.20
802;DHT22;383;48.766;9.270;2023-10-09T00:24:08;13.40;96.10
802;DHT22;383;48.766;9.270;2023-10-09T00:26:39;13.40;96.20
802;DHT22;383;48.766;9.270;2023-10-09T00:29:10;13.40;96.10
802;DHT22;383;48.766;9.270;2023-10-09T00:31:51;13.40;96.10
802;DHT22;383;48.766;9.270;2023-10-09T00:34:22;13.40;96.20
802;DHT22;383;48.766;9.270;2023-10-09T00:36:51;13.30;96.10
802;DHT22;383;48.766;9.270;2023-10-09T00:39:21;13.40;96.10
802;DHT22;383;48.766;9.270;2023-10-09T00:42:09;13.30;96.10
802;DHT22;383;48.766;9.270;2023-10-09T00:44:38;13.30;96.20
802;DHT22;383;48.766;9.270;2023-10-09T00:47:11;13.30;96.10
802;DHT22;383;48.766;9.270;2023-10-09T00:49:50;13.30;96.20
802;DHT22;383;48.766;9.270;2023-10-09T00:52:23;13.30;96.30
802;DHT22;383;48.766;9.270;2023-10-09T00:54:58;13.20;96.40
802;DHT22;383;48.766;9.270;2023-10-09T00:57:31;13.20;96.50
802;DHT22;383;48.766;9.270;2023-10-09T01:00:04;13.20;96.40
802;DHT22;383;48.766;9.270;2023-10-09T01:02:38;13.20;96.60
802;DHT22;383;48.766;9.270;2023-10-09T01:05:09;13.20;96.40
802;DHT22;383;48.766;9.270;2023-10-09T01:07:46;13.20;96.60
802;DHT22;383;48.766;9.270;2023-10-09T01:10:15;13.20;96.80
802;DHT22;383;48.766;9.270;2023-10-09T01:12:43;13.20;96.60
802;DHT22;383;48.766;9.270;2023-10-09T01:15:12;13.20;96.70
802;DHT22;383;48.766;9.270;2023-10-09T01:18:02;13.20;96.50
802;DHT22;383;48.766;9.270;2023-10-09T01:20:33;13.20;96.50
802;DHT22;383;48.766;9.270;2023-10-09T01:23:09;13.20;96.30
802;DHT22;383;48.766;9.270;2023-10-09T01:25:36;13.20;96.40
802;DHT22;383;48.766;9.270;2023-10-09T01:28:09;13.20;96.30
802;DHT22;383;48.766;9.270;2023-10-09T01:30:36;13.20;96.40
802;DHT22;383;48.766;9.270;2023-10-09T01:33:07;13.30;96.30
802;DHT22;383;48.766;9.270;2023-10-09T01:35:38;13.30;96.20
802;DHT22;383;48.766;9.270;2023-10-09T01:38:13;13.40;96.10
802;DHT22;383;48.766;9.270;2023-10-09T01:40:41;13.30;95.90
802;DHT22;383;48.766;9.270;2023-10-09T01:43:09;13.40;96.00
802;DHT22;383;48.766;9.270;2023-10-09T01:45:36;13.30;96.10
802;DHT22;383;48.766;9.270;2023-10-09T01:48:07;13.30;96.40
802;DHT22;383;48.766;9.270;2023-10-09T01:50:34;13.40;96.30
802;DHT22;383;48.766;9.270;2023-10-09T01:53:02;13.40;96.20
802;DHT22;383;48.766;9.270;2023-10-09T01:55:32;13.40;96.30
802;DHT22;383;48.766;9.270;2023-10-09T01:58:05;13.50;96.10
802;DHT22;383;48.766;9.270;2023-10-09T02:00:31;13.50;96.10
802;DHT22;383;48.766;9.270;2023-10-09T02:03:07;13.50;96.10
802;DHT22;383;48.766;9.270;2023-10-09T02:05:38;13.50;96.10
802;DHT22;383;48.766;9.270;2023-10-09T02:08:05;13.50;96.10
802;DHT22;383;48.766;9.270;2023-10-09T02:10:34;13.60;96.00
802;DHT22;383;48.766;9.270;2023-10-09T02:13:04;13.60;95.90
802;DHT22;383;48.766;9.270;2023-10-09T02:15:33;13.60;95.90
802;DHT22;383;48.766;9.270;2023-10-09T02:18:11;13.60;96.00
802;DHT22;383;48.766;9.270;2023-10-09T02:20:53;13.60;96.20
802;DHT22;383;48.766;9.270;2023-10-09T02:23:26;13.60;96.30
802;DHT22;383;48.766;9.270;2023-10-09T02:26:05;13.60;96.20
802;DHT22;383;48.766;9.270;2023-10-09T02:28:34;13.60;96.10
802;DHT22;383;48.766;9.270;2023-10-09T02:31:02;13.60;96.00
802;DHT22;383;48.766;9.270;2023-10-09T02:33:36;13.60;96.10
802;DHT22;383;48.766;9.270;2023-10-09T02:36:04;13.70;95.90
802;DHT22;383;48.766;9.270;2023-10-09T02:38:31;13.70;95.80
802;DHT22;383;48.766;9.270;2023-10-09T02:40:59;13.70;95.90
802;DHT22;383;48.766;9.270;2023-10-09T02:43:47;13.70;96.00
802;DHT22;383;48.766;9.270;2023-10-09T02:46:17;13.70;95.90
802;DHT22;383;48.766;9.270;2023-10-09T02:48:45;13.70;95.80
802;DHT22;383;48.766;9.270;2023-10-09T02:51:16;13.70;95.80
802;DHT22;383;48.766;9.270;2023-10-09T02:53:57;13.80;95.80
802;DHT22;383;48.766;9.270;2023-10-09T02:56:24;13.80;95.80
802;DHT22;383;48.766;9.270;2023-10-09T02:59:03;13.80;95.80
802;DHT22;383;48.766;9.270;2023-10-09T03:01:32;13.80;95.80
802;DHT22;383;48.766;9.270;2023-10-09T03:04:01;13.80;95.70
802;DHT22;383;48.766;9.270;2023-10-09T03:06:28;13.80;95.60
802;DHT22;383;48.766;9.270;2023-10-09T03:08:56;13.90;95.60
802;DHT22;383;48.766;9.270;2023-10-09T03:11:23;13.90;95.30
802;DHT22;383;48.766;9.270;2023-10-09T03:13:52;14.00;95.60
802;DHT22;383;48.766;9.270;2023-10-09T03:16:21;13.90;95.60
802;DHT22;383;48.766;9.270;2023-10-09T03:18:50;13.90;95.80
802;DHT22;383;48.766;9.270;2023-10-09T03:21:18;13.90;95.80
802;DHT22;383;48.766;9.270;2023-10-09T03:23:46;13.90;95.70
802;DHT22;383;48.766;9.270;2023-10-09T03:26:15;14.00;95.70
802;DHT22;383;48.766;9.270;2023-10-09T03:28:43;14.00;95.60
802;DHT22;383;48.766;9.270;2023-10-09T03:31:10;14.00;95.50
802;DHT22;383;48.766;9.270;2023-10-09T03:33:38;14.00;95.60
802;DHT22;383;48.766;9.270;2023-10-09T03:36:06;14.00;95.50
802;DHT22;383;48.766;9.270;2023-10-09T03:38:35;14.00;95.50
802;DHT22;383;48.766;9.270;2023-10-09T03:41:02;14.00;95.40
802;DHT22;383;48.766;9.270;2023-10-09T03:43:31;14.00;95.00
802;DHT22;383;48.766;9.270;2023-10-09T03:46:03;14.10;94.90
802;DHT22;383;48.766;9.270;2023-10-09T03:48:41;14.10;94.20
802;DHT22;383;48.766;9.270;2023-10-09T03:51:12;14.20;93.80
802;DHT22;383;48.766;9.270;2023-10-09T03:53:41;14.30;93.70
802;DHT22;383;48.766;9.270;2023-10-09T03:56:09;14.40;92.70
802;DHT22;383;48.766;9.270;2023-10-09T03:58:39;14.40;92.70
802;DHT22;383;48.766;9.270;2023-10-09T04:01:09;14.40;92.40
802;DHT22;383;48.766;9.270;2023-10-09T04:03:43;14.50;91.70
802;DHT22;383;48.766;9.270;2023-10-09T04:06:10;14.50;91.50
802;DHT22;383;48.766;9.270;2023-10-09T04:08:37;14.50;91.30
802;DHT22;383;48.766;9.270;2023-10-09T04:11:12;14.50;91.10
802;DHT22;383;48.766;9.270;2023-10-09T04:13:43;14.50;91.20
802;DHT22;383;48.766;9.270;2023-10-09T04:16:11;14.50;91.50
802;DHT22;383;48.766;9.270;2023-10-09T04:19:01;14.50;91.40
802;DHT22;383;48.766;9.270;2023-10-09T04:21:37;14.50;91.40
802;DHT22;383;48.766;9.270;2023-10-09T04:24:04;14.50;91.40
802;DHT22;383;48.766;9.270;2023-10-09T04:26:50;14.50;91.40
802;DHT22;383;48.766;9.270;2023-10-09T04:29:28;14.50;91.30
802;DHT22;383;48.766;9.270;2023-10-09T04:32:03;14.50;91.50
802;DHT22;383;48.766;9.270;2023-10-09T04:34:34;14.40;91.60
802;DHT22;383;48.766;9.270;2023-10-09T04:37:01;14.40;91.60
802;DHT22;383;48.766;9.270;2023-10-09T04:39:45;14.40;91.60
802;DHT22;383;48.766;9.270;2023-10-09T04:42:15;14.40;91.50
802;DHT22;383;48.766;9.270;2023-10-09T04:45:00;14.40;91.60
802;DHT22;383;48.766;9.270;2023-10-09T04:47:40;14.40;91.70
802;DHT22;383;48.766;9.270;2023-10-09T04:50:16;14.30;91.70
802;DHT22;383;48.766;9.270;2023-10-09T04:52:57;14.30;91.60
802;DHT22;383;48.766;9.270;2023-10-09T04:55:43;14.30;91.70
802;DHT22;383;48.766;9.270;2023-10-09T04:58:19;14.30;91.90
802;DHT22;383;48.766;9.270;2023-10-09T05:00:53;14.30;91.90
802;DHT22;383;48.766;9.270;2023-10-09T05:03:37;14.20;92.00
802;DHT22;383;48.766;9.270;2023-10-09T05:06:13;14.20;92.20
802;DHT22;383;48.766;9.270;2023-10-09T05:09:09;14.20;92.20
802;DHT22;383;48.766;9.270;2023-10-09T05:11:39;14.20;92.30
802;DHT22;383;48.766;9.270;2023-10-09T05:14:20;14.20;92.20
802;DHT22;383;48.766;9.270;2023-10-09T05:17:04;14.20;92.50
802;DHT22;383;48.766;9.270;2023-10-09T05:19:35;14.20;92.50
802;DHT22;383;48.766;9.270;2023-10-09T05:22:21;14.20;92.70
802;DHT22;383;48.766;9.270;2023-10-09T05:25:02;14.20;92.80
802;DHT22;383;48.766;9.270;2023-10-09T05:27:28;14.20;92.80
802;DHT22;383;48.766;9.270;2023-10-09T05:30:16;14.20;92.70
802;DHT22;383;48.766;9.270;2023-10-09T05:32:52;14.10;92.90
802;DHT22;383;48.766;9.270;2023-10-09T05:35:24;14.10;92.90
802;DHT22;383;48.766;9.270;2023-10-09T05:38:09;14.10;92.90
802;DHT22;383;48.766;9.270;2023-10-09T05:40:49;14.10;92.90
802;DHT22;383;48.766;9.270;2023-10-09T05:43:20;14.10;93.00
802;DHT22;383;48.766;9.270;2023-10-09T05:46:00;14.00;93.30
802;DHT22;383;48.766;9.270;2023-10-09T05:48:40;14.10;93.30
802;DHT22;383;48.766;9.270;2023-10-09T05:51:23;14.10;93.30
802;DHT22;383;48.766;9.270;2023-10-09T05:54:08;14.10;93.10
802;DHT22;383;48.766;9.270;2023-10-09T05:56:49;14.10;93.00
802;DHT22;383;48.766;9.270;2023-10-09T05:59:33;14.10;93.40
802;DHT22;383;48.766;9.270;2023-10-09T06:02:26;14.10;93.30
802;DHT22;383;48.766;9.270;2023-10-09T06:05:10;14.10;93.40
802;DHT22;383;48.766;9.270;2023-10-09T06:08:06;14.10;93.50
802;DHT22;383;48.766;9.270;2023-10-09T06:10:34;14.10;93.50
802;DHT22;383;48.766;9.270;2023-10-09T06:13:05;14.20;93.60
802;DHT22;383;48.766;9.270;2023-10-09T06:15:37;14.20;93.30
802;DHT22;383;48.766;9.270;2023-10-09T06:18:34;14.30;93.20
802;DHT22;383;48.766;9.270;2023-10-09T06:21:01;14.30;92.90
802;DHT22;383;48.766;9.270;2023-10-09T06:24:06;14.30;93.00
802;DHT22;383;48.766;9.270;2023-10-09T06:26:42;14.30;92.90
802;DHT22;383;48.766;9.270;2023-10-09T06:29:17;14.40;92.70
802;DHT22;383;48.766;9.270;2023-10-09T06:32:01;14.40;92.60
802;DHT22;383;48.766;9.270;2023-10-09T06:34:57;14.50;92.20
802;DHT22;383;48.766;9.270;2023-10-09T06:37:41;14.50;92.20
802;DHT22;383;48.766;9.270;2023-10-09T06:40:29;14.60;92.30
802;DHT22;383;48.766;9.270;2023-10-09T06:43:14;14.60;92.30
802;DHT22;383;48.766;9.270;2023-10-09T06:45:53;14.70;92.30
802;DHT22;383;48.766;9.270;2023-10-09T06:48:21;14.70;92.10
802;DHT22;383;48.766;9.270;2023-10-09T06:51:08;14.80;91.80
802;DHT22;383;48.766;9.270;2023-10-09T06:53:41;14.90;91.60
802;DHT22;383;48.766;9.270;2023-10-09T06:56:30;14.90;91.40
802;DHT22;383;48.766;9.270;2023-10-09T06:59:11;15.00;90.60
802;DHT22;383;48.766;9.270;2023-10-09T07:01:41;15.10;90.20
802;DHT22;383;48.766;9.270;2023-10-09T07:04:08;15.20;89.70
802;DHT22;383;48.766;9.270;2023-10-09T07:06:46;15.20;89.30
802;DHT22;383;48.766;9.270;2023-10-09T07:09:16;15.30;89.40
802;DHT22;383;48.766;9.270;2023-10-09T07:11:46;15.40;89.30
802;DHT22;383;48.766;9.270;2023-10-09T07:14:24;15.40;89.30
802;DHT22;383;48.766;9.270;2023-10-09T07:17:09;15.60;88.10
802;DHT22;383;48.766;9.270;2023-10-09T07:19:47;15.60;88.40
802;DHT22;383;48.766;9.270;2023-10-09T07:22:35;15.60;88.50
802;DHT22;383;48.766;9.270;2023-10-09T07:25:18;15.70;88.60
802;DHT22;383;48.766;9.270;2023-10-09T07:27:58;15.80;88.40
802;DHT22;383;48.766;9.270;2023-10-09T07:30:25;15.90;88.10
802;DHT22;383;48.766;9.270;2023-10-09T07:33:05;16.00;87.60
802;DHT22;383;48.766;9.270;2023-10-09T07:35:44;16.20;86.50
802;DHT22;383;48.766;9.270;2023-10-09T07:38:23;16.20;86.40
802;DHT22;383;48.766;9.270;2023-10-09T07:40:54;16.40;84.80
802;DHT22;383;48.766;9.270;2023-10-09T07:43:26;16.40;85.20
802;DHT22;383;48.766;9.270;2023-10-09T07:45:55;16.50;84.70
802;DHT22;383;48.766;9.270;2023-10-09T07:48:39;16.50;84.50
802;DHT22;383;48.766;9.270;2023-10-09T07:51:14;16.60;84.50
802;DHT22;383;48.766;9.270;2023-10-09T07:53:43;16.70;83.90
802;DHT22;383;48.766;9.270;2023-10-09T07:56:10;16.80;83.00
802;DHT22;383;48.766;9.270;2023-10-09T07:58:39;16.80;83.10
802;DHT22;383;48.766;9.270;2023-10-09T08:01:13;16.90;83.40
802;DHT22;383;48.766;9.270;2023-10-09T08:03:48;17.00;83.20
802;DHT22;383;48.766;9.270;2023-10-09T08:06:23;17.10;83.60
802;DHT22;383;48.766;9.270;2023-10-09T08:09:06;17.20;83.10
802;DHT22;383;48.766;9.270;2023-10-09T08:12:04;17.20;83.10
802;DHT22;383;48.766;9.270;2023-10-09T08:14:48;17.30;82.40
802;DHT22;383;48.766;9.270;2023-10-09T08:17:15;17.40;82.40
802;DHT22;383;48.766;9.270;2023-10-09T08:19:42;17.60;81.50
802;DHT22;383;48.766;9.270;2023-10-09T08:22:27;17.60;81.50
802;DHT22;383;48.766;9.270;2023-10-09T08:25:12;17.70;81.80
802;DHT22;383;48.766;9.270;2023-10-09T08:27:54;17.90;81.00
802;DHT22;383;48.766;9.270;2023-10-09T08:30:20;18.00;80.00
802;DHT22;383;48.766;9.270;2023-10-09T08:33:06;18.00;80.20
802;DHT22;383;48.766;9.270;2023-10-09T08:35:47;18.10;80.80
802;DHT22;383;48.766;9.270;2023-10-09T08:38:15;18.20;79.90
802;DHT22;383;48.766;9.270;2023-10-09T08:40:50;18.20;79.30
802;DHT22;383;48.766;9.270;2023-10-09T08:43:21;18.20;80.00
802;DHT22;383;48.766;9.270;2023-10-09T08:45:49;18.40;79.80
802;DHT22;383;48.766;9.270;2023-10-09T08:48:17;18.40;79.10
802;DHT22;383;48.766;9.270;2023-10-09T08:50:45;18.60;78.70
802;DHT22;383;48.766;9.270;2023-10-09T08:53:15;18.70;78.20
802;DHT22;383;48.766;9.270;2023-10-09T08:55:43;18.80;78.60
802;DHT22;383;48.766;9.270;2023-10-09T08:58:14;18.90;78.90
802;DHT22;383;48.766;9.270;2023-10-09T09:00:44;19.00;79.10
802;DHT22;383;48.766;9.270;2023-10-09T09:03:11;19.10;79.50
802;DHT22;383;48.766;9.270;2023-10-09T09:05:39;19.20;79.90
802;DHT22;383;48.766;9.270;2023-10-09T09:08:21;19.30;79.50
802;DHT22;383;48.766;9.270;2023-10-09T09:10:55;19.40;78.70
802;DHT22;383;48.766;9.270;2023-10-09T09:13:25;19.50;79.70
802;DHT22;383;48.766;9.270;2023-10-09T09:15:57;19.70;78.70
802;DHT22;383;48.766;9.270;2023-10-09T09:18:24;19.80;77.30
802;DHT22;383;48.766;9.270;2023-10-09T09:20:57;19.80;76.00
802;DHT22;383;48.766;9.270;2023-10-09T09:23:24;19.90;74.80
802;DHT22;383;48.766;9.270;2023-10-09T09:25:52;20.00;74.20
802;DHT22;383;48.766;9.270;2023-10-09T09:28:26;20.20;72.40
802;DHT22;383;48.766;9.270;2023-10-09T09:31:07;20.40;72.90
802;DHT22;383;48.766;9.270;2023-10-09T09:33:38;20.50;72.30
802;DHT22;383;48.766;9.270;2023-10-09T09:36:06;20.70;72.90
802;DHT22;383;48.766;9.270;2023-10-09T09:38:34;20.90;72.60
802;DHT22;383;48.766;9.270;2023-10-09T09:41:08;21.00;72.50
802;DHT22;383;48.766;9.270;2023-10-09T09:43:37;21.10;72.30
802;DHT22;383;48.766;9.270;2023-10-09T09:46:07;21.30;71.60
802;DHT22;383;48.766;9.270;2023-10-09T09:48:39;21.40;71.30
802;DHT22;383;48.766;9.270;2023-10-09T09:51:11;21.50;70.80
802;DHT22;383;48.766;9.270;2023-10-09T09:53:39;21.60;69.90
802;DHT22;383;48.766;9.270;2023-10-09T09:56:06;21.70;70.00
802;DHT22;383;48.766;9.270;2023-10-09T09:58:40;21.80;69.30
802;DHT22;383;48.766;9.270;2023-10-09T10:01:11;21.90;68.80
802;DHT22;383;48.766;9.270;2023-10-09T10:03:53;21.90;68.80
802;DHT22;383;48.766;9.270;2023-10-09T10:06:23;22.00;70.70
802;DHT22;383;48.766;9.270;2023-10-09T10:08:52;22.10;70.00
802;DHT22;383;48.766;9.270;2023-10-09T10:11:41;22.20;69.10
802;DHT22;383;48.766;9.270;2023-10-09T10:14:11;22.30;68.70
802;DHT22;383;48.766;9.270;2023-10-09T10:17:00;22.40;68.90
802;DHT22;383;48.766;9.270;2023-10-09T10:19:59;22.50;69.10
802;DHT22;383;48.766;9.270;2023-10-09T10:22:27;22.60;68.90
802;DHT22;383;48.766;9.270;2023-10-09T10:24:55;22.70;68.90
802;DHT22;383;48.766;9.270;2023-10-09T10:27:28;22.80;67.60
802;DHT22;383;48.766;9.270;2023-10-09T10:30:30;22.90;66.80
802;DHT22;383;48.766;9.270;2023-10-09T10:33:00;22.90;67.60
802;DHT22;383;48.766;9.270;2023-10-09T10:35:36;23.10;67.00
802;DHT22;383;48.766;9.270;2023-10-09T10:38:29;23.20;63.00
802;DHT22;383;48.766;9.270;2023-10-09T10:41:10;23.30;62.20
802;DHT22;383;48.766;9.270;2023-10-09T10:43:40;23.40;62.50
802;DHT22;383;48.766;9.270;2023-10-09T10:46:26;23.50;62.50
802;DHT22;383;48.766;9.270;2023-10-09T10:49:05;23.60;63.00
802;DHT22;383;48.766;9.270;2023-10-09T10:51:42;23.70;62.50
802;DHT22;383;48.766;9.270;2023-10-09T10:54:20;23.70;61.90
802;DHT22;383;48.766;9.270;2023-10-09T10:57:18;23.80;63.10
802;DHT22;383;48.766;9.270;2023-10-09T10:59:54;23.80;62.20
802;DHT22;383;48.766;9.270;2023-10-09T11:02:43;23.80;63.50
802;DHT22;383;48.766;9.270;2023-10-09T11:05:09;23.90;63.80
802;DHT22;383;48.766;9.270;2023-10-09T11:07:50;23.90;64.30
802;DHT22;383;48.766;9.270;2023-10-09T11:10:22;24.00;65.00
802;DHT22;383;48.766;9.270;2023-10-09T11:12:54;24.10;64.10
802;DHT22;383;48.766;9.270;2023-10-09T11:15:53;24.10;60.60
802;DHT22;383;48.766;9.270;2023-10-09T11:18:42;24.20;60.50
802;DHT22;383;48.766;9.270;2023-10-09T11:21:14;24.30;60.50
802;DHT22;383;48.766;9.270;2023-10-09T11:23:59;24.40;61.00
802;DHT22;383;48.766;9.270;2023-10-09T11:26:46;24.50;58.70
802;DHT22;383;48.766;9.270;2023-10-09T11:29:19;24.60;58.50
802;DHT22;383;48.766;9.270;2023-10-09T11:31:59;24.80;56.50
802;DHT22;383;48.766;9.270;2023-10-09T11:34:28;24.90;56.20
802;DHT22;383;48.766;9.270;2023-10-09T11:36:59;25.00;55.50
802;DHT22;383;48.766;9.270;2023-10-09T11:39:28;25.10;55.70
802;DHT22;383;48.766;9.270;2023-10-09T11:42:05;25.10;56.50
802;DHT22;383;48.766;9.270;2023-10-09T11:44:35;25.10;57.20
802;DHT22;383;48.766;9.270;2023-10-09T11:47:05;25.10;57.60
802;DHT22;383;48.766;9.270;2023-10-09T11:49:50;25.00;57.40
802;DHT22;383;48.766;9.270;2023-10-09T11:52:36;25.00;57.80
802;DHT22;383;48.766;9.270;2023-10-09T11:55:04;25.00;59.00
802;DHT22;383;48.766;9.270;2023-10-09T11:57:32;24.90;61.30
802;DHT22;383;48.766;9.270;2023-10-09T12:00:01;24.90;61.70
802;DHT22;383;48.766;9.270;2023-10-09T12:02:36;24.80;60.40
802;DHT22;383;48.766;9.270;2023-10-09T12:05:10;24.70;61.90
802;DHT22;383;48.766;9.270;2023-10-09T12:07:43;24.60;62.60
802;DHT22;383;48.766;9.270;2023-10-09T12:10:10;24.60;63.50
802;DHT22;383;48.766;9.270;2023-10-09T12:12:39;24.60;63.90
802;DHT22;383;48.766;9.270;2023-10-09T12:15:07;24.60;63.90
802;DHT22;383;48.766;9.270;2023-10-09T12:17:42;24.60;63.70
802;DHT22;383;48.766;9.270;2023-10-09T12:20:11;24.60;63.30
802;DHT22;383;48.766;9.270;2023-10-09T12:22:47;24.60;63.50
802;DHT22;383;48.766;9.270;2023-10-09T12:25:14;24.60;63.00
802;DHT22;383;48.766;9.270;2023-10-09T12:27:40;24.70;62.60
802;DHT22;383;48.766;9.270;2023-10-09T12:30:10;25.00;60.80
802;DHT22;383;48.766;9.270;2023-10-09T12:32:37;25.00;60.10
802;DHT22;383;48.766;9.270;2023-10-09T12:35:06;25.10;60.20
802;DHT22;383;48.766;9.270;2023-10-09T12:37:44;25.20;61.30
802;DHT22;383;48.766;9.270;2023-10-09T12:40:11;25.30;58.20
802;DHT22;383;48.766;9.270;2023-10-09T12:42:38;25.50;57.10
802;DHT22;383;48.766;9.270;2023-10-09T12:45:06;25.50;55.40
802;DHT22;383;48.766;9.270;2023-10-09T12:47:35;25.50;56.10
802;DHT22;383;48.766;9.270;2023-10-09T12:50:03;25.60;56.10
802;DHT22;383;48.766;9.270;2023-10-09T12:52:35;25.60;56.40
802;DHT22;383;48.766;9.270;2023-10-09T12:55:05;25.50;54.60
802;DHT22;383;48.766;9.270;2023-10-09T12:57:35;25.60;52.30
802;DHT22;383;48.766;9.270;2023-10-09T13:00:02;25.60;53.80
802;DHT22;383;48.766;9.270;2023-10-09T13:02:36;25.70;55.20
802;DHT22;383;48.766;9.270;2023-10-09T13:05:09;25.70;55.70
802;DHT22;383;48.766;9.270;2023-10-09T13:07:50;25.60;53.50
802;DHT22;383;48.766;9.270;2023-10-09T13:10:18;25.60;54.40
802;DHT22;383;48.766;9.270;2023-10-09T13:12:45;25.60;54.50
802;DHT22;383;48.766;9.270;2023-10-09T13:15:12;25.50;52.30
802;DHT22;383;48.766;9.270;2023-10-09T13:17:39;25.40;50.00
802;DHT22;383;48.766;9.270;2023-10-09T13:20:07;25.30;50.50
802;DHT22;383;48.766;9.270;2023-10-09T13:22:38;25.20;49.70
802;DHT22;383;48.766;9.270;2023-10-09T13:25:07;25.20;50.40
802;DHT22;383;48.766;9.270;2023-10-09T13:27:41;25.30;45.50
802;DHT22;383;48.766;9.270;2023-10-09T13:30:09;25.30;44.70
802;DHT22;383;48.766;9.270;2023-10-09T13:32:47;25.40;45.80
802;DHT22;383;48.766;9.270;2023-10-09T13:35:15;25.40;45.10
802;DHT22;383;48.766;9.270;2023-10-09T13:37:43;25.40;45.20
802;DHT22;383;48.766;9.270;2023-10-09T13:40:13;25.50;45.70
802;DHT22;383;48.766;9.270;2023-10-09T13:42:54;25.50;44.70
802;DHT22;383;48.766;9.270;2023-10-09T13:45:25;25.50;45.30
802;DHT22;383;48.766;9.270;2023-10-09T13:47:54;25.50;45.50
802;DHT22;383;48.766;9.270;2023-10-09T13:50:20;25.50;45.30
802;DHT22;383;48.766;9.270;2023-10-09T13:52:47;25.50;45.70
802;DHT22;383;48.766;9.270;2023-10-09T13:55:14;25.50;45.60
802;DHT22;383;48.766;9.270;2023-10-09T13:57:44;25.50;46.60
802;DHT22;383;48.766;9.270;2023-10-09T14:00:14;25.60;47.20
802;DHT22;383;48.766;9.270;2023-10-09T14:02:58;25.70;45.70
802;DHT22;383;48.766;9.270;2023-10-09T14:05:27;25.80;45.20
802;DHT22;383;48.766;9.270;2023-10-09T14:07:53;26.00;36.50
802;DHT22;383;48.766;9.270;2023-10-09T14:10:25;26.10;38.40
802;DHT22;383;48.766;9.270;2023-10-09T14:12:55;26.20;40.10
802;DHT22;383;48.766;9.270;2023-10-09T14:15:24;26.30;39.30
802;DHT22;383;48.766;9.270;2023-10-09T14:17:50;26.30;38.80
802;DHT22;383;48.766;9.270;2023-10-09T14:20:21;26.30;37.10
802;DHT22;383;48.766;9.270;2023-10-09T14:22:57;26.40;37.60
802;DHT22;383;48.766;9.270;2023-10-09T14:25:32;26.20;32.30
802;DHT22;383;48.766;9.270;2023-10-09T14:27:58;26.10;29.70
802;DHT22;383;48.766;9.270;2023-10-09T14:30:26;26.10;31.20
802;DHT22;383;48.766;9.270;2023-10-09T14:32:59;26.10;32.40
802;DHT22;383;48.766;9.270;2023-10-09T14:35:28;26.10;31.30
802;DHT22;383;48.766;9.270;2023-10-09T14:37:56;26.10;32.30
802;DHT22;383;48.766;9.270;2023-10-09T14:40:23;26.20;32.90
802;DHT22;383;48.766;9.270;2023-10-09T14:42:57;26.20;35.50
802;DHT22;383;48.766;9.270;2023-10-09T14:45:24;26.30;36.30
802;DHT22;383;48.766;9.270;2023-10-09T14:47:53;26.30;35.30
802;DHT22;383;48.766;9.270;2023-10-09T14:50:20;26.20;36.20
802;DHT22;383;48.766;9.270;2023-10-09T14:52:48;26.20;35.90
802;DHT22;383;48.766;9.270;2023-10-09T14:55:16;26.10;38.10
802;DHT22;383;48.766;9.270;2023-10-09T14:57:47;26.00;38.60
802;DHT22;383;48.766;9.270;2023-10-09T15:00:16;25.90;34.40
802;DHT22;383;48.766;9.270;2023-10-09T15:02:48;25.90;36.40
802;DHT22;383;48.766;9.270;2023-10-09T15:05:17;25.90;37.10
802;DHT22;383;48.766;9.270;2023-10-09T15:07:44;25.80;38.00
802;DHT22;383;48.766;9.270;2023-10-09T15:10:11;25.80;38.90
802;DHT22;383;48.766;9.270;2023-10-09T15:12:41;25.70;40.10
802;DHT22;383;48.766;9.270;2023-10-09T15:15:09;25.70;42.40
802;DHT22;383;48.766;9.270;2023-10-09T15:17:39;25.60;44.00
802;DHT22;383;48.766;9.270;2023-10-09T15:20:10;25.50;45.70
802;DHT22;383;48.766;9.270;2023-10-09T15:22:40;25.40;44.80
802;DHT22;383;48.766;9.270;2023-10-09T15:25:08;25.30;45.70
802;DHT22;383;48.766;9.270;2023-10-09T15:27:39;25.20;46.60
802;DHT22;383;48.766;9.270;2023-10-09T15:30:07;25.10;46.80
802;DHT22;383;48.766;9.270;2023-10-09T15:32:39;24.90;47.10
802;DHT22;383;48.766;9.270;2023-10-09T15:35:07;24.70;48.30
802;DHT22;383;48.766;9.270;2023-10-09T15:37:35;24.60;48.30
802;DHT22;383;48.766;9.270;2023-10-09T15:40:05;24.50;48.20
802;DHT22;383;48.766;9.270;2023-10-09T15:42:32;24.40;49.20
802;DHT22;383;48.766;9.270;2023-10-09T15:45:00;24.30;49.90
802;DHT22;383;48.766;9.270;2023-10-09T15:47:26;24.20;51.00
802;DHT22;383;48.766;9.270;2023-10-09T15:49:53;24.10;51.30
802;DHT22;383;48.766;9.270;2023-10-09T15:52:20;23.90;51.00
802;DHT22;383;48.766;9.270;2023-10-09T15:54:52;23.80;51.60
802;DHT22;383;48.766;9.270;2023-10-09T15:57:21;23.70;52.00
802;DHT22;383;48.766;9.270;2023-10-09T15:59:48;23.60;51.50
802;DHT22;383;48.766;9.270;2023-10-09T16:02:15;23.40;52.40
802;DHT22;383;48.766;9.270;2023-10-09T16:04:42;23.30;53.30
802;DHT22;383;48.766;9.270;2023-10-09T16:07:10;23.10;53.00
802;DHT22;383;48.766;9.270;2023-10-09T16:09:37;23.00;53.60
802;DHT22;383;48.766;9.270;2023-10-09T16:12:04;22.90;54.70
802;DHT22;383;48.766;9.270;2023-10-09T16:14:33;22.60;54.90
802;DHT22;383;48.766;9.270;2023-10-09T16:17:00;22.40;55.50
802;DHT22;383;48.766;9.270;2023-10-09T16:19:27;22.30;56.00
802;DHT22;383;48.766;9.270;2023-10-09T16:21:58;22.20;56.60
802;DHT22;383;48.766;9.270;2023-10-09T16:24:29;22.10;56.40
802;DHT22;383;48.766;9.270;2023-10-09T16:26:58;21.90;56.90
802;DHT22;383;48.766;9.270;2023-10-09T16:29:25;21.80;56.40
802;DHT22;383;48.766;9.270;2023-10-09T16:31:54;21.60;56.70
802;DHT22;383;48.766;9.270;2023-10-09T16:34:21;21.50;56.00
802;DHT22;383;48.766;9.270;2023-10-09T16:36:51;21.40;56.50
802;DHT22;383;48.766;9.270;2023-10-09T16:39:18;21.30;57.10
802;DHT22;383;48.766;9.270;2023-10-09T16:41:48;21.20;57.10
802;DHT22;383;48.766;9.270;2023-10-09T16:44:15;21.10;56.40
802;DHT22;383;48.766;9.270;2023-10-09T16:46:43;21.00;57.60
802;DHT22;383;48.766;9.270;2023-10-09T16:49:13;20.80;58.20
802;DHT22;383;48.766;9.270;2023-10-09T16:51:40;20.60;57.70
802;DHT22;383;48.766;9.270;2023-10-09T16:54:08;20.50;59.00
802;DHT22;383;48.766;9.270;2023-10-09T16:56:40;20.40;57.70
802;DHT22;383;48.766;9.270;2023-10-09T16:59:08;20.20;56.60
802;DHT22;383;48.766;9.270;2023-10-09T17:01:39;20.10;56.90
802;DHT22;383;48.766;9.270;2023-10-09T17:04:06;20.10;57.10
802;DHT22;383;48.766;9.270;2023-10-09T17:06:38;20.00;57.40
802;DHT22;383;48.766;9.270;2023-10-09T17:09:06;19.90;58.30
802;DHT22;383;48.766;9.270;2023-10-09T17:11:33;19.80;58.60
802;DHT22;383;48.766;9.270;2023-10-09T17:14:02;19.70;59.20